Beatrice, NE

4:37 PM CDT on August 23, 2016 (GMT -0500)
Beatrice Municipal | | Change Station

Elev 1322 ft 40.30 °N, 96.75 °W | Updated 22 minutes ago

Mostly Cloudy
Mostly Cloudy
88 °F
Feels Like 95 °F
N
20
Wind Variable Wind from SSW
Gusts 26 mph

Today
High -- | Low -- °F
--% Chance of Precip.
Yesterday
High -- | Low -- °F
Precip. -- in
Pressure 29.84 in
Visibility 10.0 miles
Clouds Scattered Clouds 4600 ft
Mostly Cloudy 6000 ft
Heat Index 95 °F
Dew Point 72 °F
Humidity 59%
Rainfall 0.00 in
Snow Depth Not available.
6:46 AM 8:11 PM
Waning Gibbous, 64% visible
METAR KBIE 232115Z AUTO 20017G23KT 10SM SCT046 BKN060 31/22 A2984 RMK AO2 T03120222
Pressure 29.84 in
Visibility 10.0 miles
Clouds Scattered Clouds 4600 ft
Mostly Cloudy 6000 ft
Heat Index 95 °F
Dew Point 72 °F
Humidity 59%
Rainfall 0.00 in
Snow Depth Not available.
6:46 AM 8:11 PM
Waning Gibbous, 64% visible
METAR KBIE 232115Z AUTO 20017G23KT 10SM SCT046 BKN060 31/22 A2984 RMK AO2 T03120222

10-Day Weather Forecast

Almanac

Astronomy

Aug. 23, 2016 Rise Set
Actual Time
Civil Twilight
Nautical Twilight
Astronomical Twilight
Moon
Length of Visible Light
Length of Day
Tomorrow will be .
, % of the Moon is Illuminated

Today's Extremes

State Highs State Lows

Community

WunderPhotos

Upload Photos

1,934,470 photos uploaded!

WunderBlog® & News

Nearby

Air Quality

  Air Quality AQ Index Pollutant
Not available.

Snow Depth

Station Depth Elevation

Earthquake Activity

City Distance Mag. Time & Date
Minimum magnitude displayed is 2.5.

Coastal Water Temperatures

Place Temperature

Stations

Nearby Weather Stations

Station Location Temp. Windchill Dew Point Humidity Wind Precip. Elev Updated Type
                   

Watches & Warnings

There are currently no watches in effect.